createdAt,value
2023-01-13T00:00:26.629Z,11.39
2023-01-13T00:05:49.185Z,13.05
2023-01-13T00:10:51.727Z,12.33
2023-01-13T00:15:59.389Z,10.56
2023-01-13T00:21:04.101Z,10.50
2023-01-13T00:26:16.567Z,12.36
2023-01-13T00:31:21.208Z,13.44
2023-01-13T00:36:23.828Z,12.59
2023-01-13T00:41:27.301Z,10.67
2023-01-13T00:46:30.015Z,10.63
2023-01-13T00:51:32.711Z,12.40
2023-01-13T00:56:40.264Z,13.31
2023-01-13T01:01:43.670Z,13.61
2023-01-13T01:06:46.323Z,11.85
2023-01-13T01:11:48.943Z,11.15
2023-01-13T01:16:51.579Z,12.76
2023-01-13T01:21:54.941Z,13.59
2023-01-13T01:26:59.698Z,13.00
2023-01-13T01:32:02.292Z,10.93
2023-01-13T01:37:05.264Z,10.92
2023-01-13T01:42:18.403Z,12.67
2023-01-13T01:47:22.552Z,13.55
2023-01-13T01:52:32.925Z,13.54
2023-01-13T01:57:42.874Z,11.49
2023-01-13T02:02:50.483Z,11.74
2023-01-13T02:07:56.790Z,13.09
2023-01-13T02:13:03.709Z,13.58
2023-01-13T02:18:07.443Z,13.81
2023-01-13T02:23:31.864Z,14.04
2023-01-13T02:29:06.590Z,14.13
2023-01-13T02:34:10.982Z,13.10
2023-01-13T02:39:19.338Z,11.13
2023-01-13T02:44:28.588Z,12.17
2023-01-13T02:49:38.183Z,13.21
2023-01-13T02:54:47.248Z,13.55
2023-01-13T02:59:52.257Z,13.79
2023-01-13T03:04:58.447Z,13.94
2023-01-13T03:10:19.616Z,14.06
2023-01-13T03:15:28.354Z,14.15
2023-01-13T03:20:36.020Z,14.20
2023-01-13T03:25:49.466Z,14.27
2023-01-13T03:30:58.762Z,14.28
2023-01-13T03:36:07.963Z,14.32
2023-01-13T03:41:16.915Z,13.44
2023-01-13T03:46:28.155Z,11.68
2023-01-13T03:51:34.833Z,12.78
2023-01-13T03:56:45.522Z,13.42
2023-01-13T04:01:54.419Z,13.71
2023-01-13T04:07:20.123Z,13.94
2023-01-13T04:12:48.646Z,14.11
2023-01-13T04:17:51.937Z,14.16
2023-01-13T04:22:54.476Z,14.06
2023-01-13T04:27:57.040Z,14.09
2023-01-13T04:33:01.756Z,14.17
2023-01-13T04:38:14.513Z,14.21
2023-01-13T04:43:17.314Z,14.17
2023-01-13T04:48:19.836Z,14.16
2023-01-13T04:53:22.408Z,14.18
2023-01-13T04:58:24.944Z,14.16
2023-01-13T05:03:27.448Z,14.09
2023-01-13T05:08:29.984Z,14.19
2023-01-13T05:13:35.426Z,14.18
2023-01-13T05:18:38.049Z,14.14
2023-01-13T05:23:43.528Z,14.08
2023-01-13T05:28:48.712Z,14.14
2023-01-13T05:33:53.490Z,14.13
2023-01-13T05:38:56.020Z,14.27
2023-01-13T05:43:58.589Z,14.23
2023-01-13T05:49:01.621Z,14.21
2023-01-13T05:54:04.191Z,14.10
2023-01-13T05:59:07.105Z,13.98
2023-01-13T06:04:09.650Z,14.00
2023-01-13T06:09:12.237Z,14.05
2023-01-13T06:14:15.198Z,13.97
2023-01-13T06:19:17.745Z,14.01
2023-01-13T06:24:20.350Z,14.06
2023-01-13T06:29:22.867Z,13.88
2023-01-13T06:34:25.574Z,13.89
2023-01-13T06:39:31.009Z,14.07
2023-01-13T06:44:33.572Z,14.17
2023-01-13T06:49:36.145Z,14.18
2023-01-13T06:54:38.746Z,13.98
2023-01-13T06:59:41.278Z,13.98
2023-01-13T07:04:45.063Z,14.00
2023-01-13T07:09:47.594Z,14.20
2023-01-13T07:14:53.073Z,14.34
2023-01-13T07:19:55.683Z,14.07
2023-01-13T07:24:58.270Z,14.13
2023-01-13T07:30:00.780Z,14.16
2023-01-13T07:35:06.739Z,14.04
2023-01-13T07:41:19.443Z,14.32
2023-01-13T07:46:21.996Z,14.05
2023-01-13T07:51:24.803Z,14.35
2023-01-13T07:56:27.412Z,14.50
2023-01-13T08:01:31.810Z,14.51
2023-01-13T08:06:36.329Z,14.47
2023-01-13T08:11:38.849Z,14.23
2023-01-13T08:16:41.389Z,14.53
2023-01-13T08:21:44.012Z,14.65
2023-01-13T08:26:46.594Z,14.52
2023-01-13T08:31:49.257Z,14.42
2023-01-13T08:36:51.851Z,14.37
2023-01-13T08:41:55.406Z,14.66
2023-01-13T08:47:00.748Z,14.65
2023-01-13T08:52:03.974Z,14.86
2023-01-13T08:57:07.099Z,14.90
2023-01-13T09:02:14.204Z,14.85
2023-01-13T09:07:17.476Z,14.97
2023-01-13T09:12:22.969Z,15.01
2023-01-13T09:17:25.797Z,14.33
2023-01-13T09:22:28.499Z,12.40
2023-01-13T09:27:31.268Z,13.37
2023-01-13T09:32:35.222Z,14.18
2023-01-13T09:37:39.821Z,14.44
2023-01-13T09:42:49.215Z,14.82
2023-01-13T09:47:56.527Z,15.03
2023-01-13T09:53:00.544Z,15.10
2023-01-13T09:58:12.363Z,15.23
2023-01-13T10:03:21.324Z,15.09
2023-01-13T10:09:08.091Z,15.22
2023-01-13T10:14:13.550Z,15.33
2023-01-13T10:19:25.805Z,13.90
2023-01-13T10:24:35.433Z,13.15
2023-01-13T10:29:38.071Z,14.34
2023-01-13T10:34:48.815Z,14.56
2023-01-13T10:39:55.174Z,14.69
2023-01-13T10:45:00.372Z,15.08
2023-01-13T10:50:05.167Z,15.21
2023-01-13T10:55:13.551Z,15.28
2023-01-13T11:00:22.818Z,15.31
2023-01-13T11:05:27.803Z,15.48
2023-01-13T11:10:32.543Z,14.64
2023-01-13T11:15:57.995Z,13.09
2023-01-13T11:21:04.888Z,14.24
2023-01-13T11:26:16.553Z,14.84
2023-01-13T11:31:24.616Z,15.39
2023-01-13T11:36:34.534Z,15.52
2023-01-13T11:41:43.410Z,14.65
2023-01-13T11:46:49.735Z,12.86
2023-01-13T11:52:04.135Z,14.01
2023-01-13T11:57:10.606Z,14.80
2023-01-13T12:02:21.903Z,15.21
2023-01-13T12:07:39.889Z,15.37
2023-01-13T12:12:53.883Z,13.96
2023-01-13T12:17:59.444Z,13.00
2023-01-13T12:23:08.298Z,14.27
2023-01-13T12:28:17.170Z,14.96
2023-01-13T12:33:28.016Z,15.24
2023-01-13T12:38:34.586Z,15.38
2023-01-13T12:43:44.196Z,14.12
2023-01-13T12:48:54.868Z,13.05
2023-01-13T12:53:59.012Z,14.36
2023-01-13T12:59:07.563Z,14.87
2023-01-13T13:04:17.596Z,15.12
2023-01-13T13:09:23.042Z,14.56
2023-01-13T13:14:33.785Z,12.64
2023-01-13T13:19:36.290Z,13.66
2023-01-13T13:24:40.173Z,14.73
2023-01-13T13:29:45.604Z,15.15
2023-01-13T13:34:54.034Z,14.60
2023-01-13T13:40:00.207Z,12.63
2023-01-13T13:45:17.420Z,13.61
2023-01-13T13:50:20.827Z,14.73
2023-01-13T13:55:26.923Z,15.22
2023-01-13T14:00:33.204Z,13.79
2023-01-13T14:05:37.252Z,12.83
2023-01-13T14:10:40.947Z,14.27
2023-01-13T14:15:44.803Z,15.02
2023-01-13T14:20:53.543Z,15.44
2023-01-13T14:26:02.473Z,14.40
2023-01-13T14:31:08.496Z,13.17
2023-01-13T14:36:15.353Z,14.44
2023-01-13T14:41:19.993Z,14.99
2023-01-13T14:46:25.379Z,15.28
2023-01-13T14:51:30.347Z,15.44
2023-01-13T14:56:37.625Z,14.18
2023-01-13T15:01:40.345Z,12.96
2023-01-13T15:06:46.812Z,14.13
2023-01-13T15:11:49.426Z,14.80
2023-01-13T15:16:52.071Z,15.10
2023-01-13T15:21:54.632Z,15.18
2023-01-13T15:26:57.165Z,13.38
2023-01-13T15:32:02.312Z,12.57
2023-01-13T15:37:04.937Z,13.93
2023-01-13T15:42:14.736Z,14.63
2023-01-13T15:47:19.406Z,14.98
2023-01-13T15:52:24.679Z,15.15
2023-01-13T15:57:30.280Z,15.25
2023-01-13T16:02:32.869Z,14.69
2023-01-13T16:07:35.476Z,12.67
2023-01-13T16:12:38.070Z,13.47
2023-01-13T16:17:42.413Z,14.35
2023-01-13T16:22:45.326Z,14.78
2023-01-13T16:27:48.280Z,14.98
2023-01-13T16:32:51.721Z,15.13
2023-01-13T16:37:58.209Z,14.40
2023-01-13T16:43:03.353Z,12.31
2023-01-13T16:48:10.087Z,13.10
2023-01-13T16:53:12.617Z,14.17
2023-01-13T16:58:20.151Z,14.59
2023-01-13T17:03:22.807Z,14.76
2023-01-13T17:08:25.415Z,14.29
2023-01-13T17:13:28.178Z,12.42
2023-01-13T17:18:30.723Z,13.02
2023-01-13T17:23:33.420Z,13.64
2023-01-13T17:28:35.997Z,13.70
2023-01-13T17:33:38.529Z,14.27
2023-01-13T17:38:41.662Z,13.57
2023-01-13T17:43:44.299Z,11.66
2023-01-13T17:48:47.371Z,12.62
2023-01-13T17:53:49.967Z,13.77
2023-01-13T17:58:52.498Z,14.23
2023-01-13T18:03:55.175Z,14.41
2023-01-13T18:08:59.520Z,13.73
2023-01-13T18:14:02.342Z,11.74
2023-01-13T18:19:10.969Z,12.68
2023-01-13T18:24:19.528Z,13.34
2023-01-13T18:30:32.413Z,13.78
2023-01-13T18:35:38.364Z,13.90
2023-01-13T18:40:46.236Z,13.99
2023-01-13T18:45:51.253Z,14.13
2023-01-13T18:50:53.825Z,14.20
2023-01-13T18:55:56.387Z,13.43
2023-01-13T19:01:01.612Z,11.92
2023-01-13T19:06:05.962Z,12.91
2023-01-13T19:11:08.501Z,13.55
2023-01-13T19:16:15.906Z,13.46
2023-01-13T19:21:18.543Z,13.42
2023-01-13T19:26:21.500Z,13.57
2023-01-13T19:31:24.167Z,13.55
2023-01-13T19:36:26.932Z,11.62
2023-01-13T19:41:32.413Z,11.25
2023-01-13T19:46:34.994Z,12.85
2023-01-13T19:51:37.641Z,13.29
2023-01-13T19:56:40.195Z,13.07
2023-01-13T20:01:42.899Z,11.03
2023-01-13T20:06:46.363Z,10.89
2023-01-13T20:11:52.421Z,12.12
2023-01-13T20:16:55.011Z,12.53
2023-01-13T20:21:58.014Z,12.77
2023-01-13T20:27:01.513Z,11.95
2023-01-13T20:32:04.354Z,10.23
2023-01-13T20:37:06.910Z,11.28
2023-01-13T20:42:12.964Z,12.05
2023-01-13T20:47:15.928Z,12.46
2023-01-13T20:52:18.449Z,12.62
2023-01-13T20:57:21.040Z,12.60
2023-01-13T21:02:25.246Z,10.95
2023-01-13T21:07:28.233Z,9.86
2023-01-13T21:12:33.680Z,11.16
2023-01-13T21:17:41.330Z,11.90
2023-01-13T21:22:46.735Z,12.06
2023-01-13T21:27:53.513Z,10.43
2023-01-13T21:33:00.651Z,9.44
2023-01-13T21:38:03.238Z,10.80
2023-01-13T21:43:08.777Z,11.54
2023-01-13T21:48:11.669Z,11.96
2023-01-13T21:53:14.201Z,11.97
2023-01-13T21:58:19.067Z,11.70
2023-01-13T22:03:21.677Z,9.48
2023-01-13T22:08:24.418Z,8.90
2023-01-13T22:13:30.421Z,10.53
2023-01-13T22:18:32.963Z,11.27
2023-01-13T22:24:13.512Z,11.72
2023-01-13T22:29:16.362Z,11.92
2023-01-13T22:34:19.075Z,10.09
2023-01-13T22:39:21.598Z,9.05
2023-01-13T22:44:24.544Z,10.33
2023-01-13T22:49:27.211Z,10.98
2023-01-13T22:54:31.935Z,11.25
2023-01-13T22:59:36.762Z,11.31
2023-01-13T23:04:39.362Z,9.60
2023-01-13T23:09:41.904Z,8.65
2023-01-13T23:14:44.457Z,10.11
2023-01-13T23:19:46.955Z,10.91
2023-01-13T23:24:49.449Z,11.36
2023-01-13T23:29:51.974Z,11.28
2023-01-13T23:34:54.501Z,9.19
2023-01-13T23:39:57.027Z,8.62
2023-01-13T23:44:59.585Z,10.16
2023-01-13T23:50:02.365Z,10.92
2023-01-13T23:55:05.258Z,11.47
